Time;durP1;ratioP1;P1;durP2;ratioP2;P2;SDS_P1;SDS_P2;PMS_P1;PMS_P2;Temp;Humidity;BMP_temperature;BMP_pressure;BME280_temperature;BME280_humidity;BME280_pressure;Samples;Min_cycle;Max_cycle;Signal;HPM_P1;HPM_P2
2023/06/09 00:01:14;;;;;;;0.10;0.10;;;;;;;22.74;43.32;101738.09;5021418;28;20025;-72
2023/06/09 00:03:39;;;;;;;0.10;0.10;;;;;;;22.02;44.53;101737.84;5040178;28;20652;-73
2023/06/09 00:06:06;;;;;;;0.10;0.10;;;;;;;21.50;45.90;101730.84;5025159;28;20045;-73
2023/06/09 00:08:32;;;;;;;0.10;0.10;;;;;;;22.21;43.95;101734.22;5030278;28;20056;-72
2023/06/09 00:10:57;;;;;;;0.10;0.10;;;;;;;22.15;44.56;101729.06;5039359;28;20343;-72
2023/06/09 00:13:23;;;;;;;0.10;0.10;;;;;;;21.89;45.24;101730.25;5019918;28;20048;-73
2023/06/09 00:15:48;;;;;;;0.10;0.10;;;;;;;22.27;43.83;101721.34;5036255;28;20029;-72
2023/06/09 00:18:15;;;;;;;0.10;0.10;;;;;;;22.12;44.32;101724.97;5019209;28;20033;-74
2023/06/09 00:20:42;;;;;;;0.10;0.10;;;;;;;22.74;42.45;101726.31;5023110;28;20036;-73
2023/06/09 00:23:08;;;;;;;0.10;0.10;;;;;;;22.46;43.13;101725.91;5027113;28;20091;-72
2023/06/09 00:25:35;;;;;;;0.10;0.10;;;;;;;22.15;43.34;101724.38;5039631;28;20021;-72
2023/06/09 00:28:00;;;;;;;0.10;0.10;;;;;;;21.45;45.76;101719.09;5037154;28;20082;-74
2023/06/09 00:30:27;;;;;;;0.13;0.13;;;;;;;21.81;44.55;101718.78;5040357;28;20139;-72
2023/06/09 00:32:52;;;;;;;0.10;0.10;;;;;;;21.57;44.75;101719.63;5038491;28;20040;-73
2023/06/09 00:35:18;;;;;;;0.10;0.10;;;;;;;22.42;42.57;101724.00;5036411;28;20029;-73
2023/06/09 00:37:44;;;;;;;0.10;0.10;;;;;;;22.28;42.76;101712.84;5027387;28;20033;-72
2023/06/09 00:40:11;;;;;;;0.20;0.20;;;;;;;22.37;42.64;101713.88;5043007;28;20021;-75
2023/06/09 00:42:36;;;;;;;0.20;0.20;;;;;;;22.21;43.54;101709.56;5026020;28;20037;-74
2023/06/09 00:45:02;;;;;;;0.10;0.10;;;;;;;22.74;42.31;101707.94;5037171;28;20030;-73
2023/06/09 00:47:27;;;;;;;0.10;0.10;;;;;;;21.91;44.19;101708.91;5033808;28;20041;-72
2023/06/09 00:49:53;;;;;;;0.00;0.00;;;;;;;21.97;44.61;101710.53;5009731;28;20031;-71
2023/06/09 00:52:19;;;;;;;0.10;0.10;;;;;;;22.24;43.26;101708.22;5025804;28;20038;-73
2023/06/09 00:54:45;;;;;;;0.10;0.10;;;;;;;21.71;44.77;101707.00;5043905;28;20518;-73
2023/06/09 00:57:11;;;;;;;0.10;0.10;;;;;;;22.26;43.54;101714.22;5029716;28;20159;-73
2023/06/09 00:59:37;;;;;;;0.10;0.10;;;;;;;21.73;44.52;101711.13;5018068;28;20046;-72
2023/06/09 01:02:04;;;;;;;0.17;0.17;;;;;;;22.23;43.21;101703.84;5030927;28;20033;-72
2023/06/09 01:04:32;;;;;;;0.10;0.10;;;;;;;21.58;45.34;101710.34;5043480;28;20358;-74
2023/06/09 01:07:20;;;;;;;0.15;0.15;;;;;;;21.69;45.00;101712.78;5026124;28;20030;-73
2023/06/09 01:10:22;;;;;;;0.10;0.10;;;;;;;21.75;45.24;101711.66;5038439;28;20113;-72
2023/06/09 01:12:54;;;;;;;0.10;0.10;;;;;;;22.03;44.33;101712.13;4961517;28;20085;-73
2023/06/09 01:15:27;;;;;;;0.10;0.10;;;;;;;21.95;44.25;101699.03;4968430;28;20049;-73
2023/06/09 01:17:58;;;;;;;0.10;0.10;;;;;;;21.46;45.72;101699.66;4952573;28;20519;-73
2023/06/09 01:20:47;;;;;;;;;;;;;;;22.28;43.72;101703.81;4957597;28;20058;-72
2023/06/09 01:23:39;;;;;;;0.10;0.10;;;;;;;22.01;44.37;101701.47;4965826;28;19950;-72
2023/06/09 01:26:05;;;;;;;0.10;0.10;;;;;;;21.87;44.45;101705.09;4966154;28;20185;-71
2023/06/09 01:28:33;;;;;;;0.10;0.10;;;;;;;21.71;45.05;101699.63;4962731;28;20562;-71
2023/06/09 01:31:00;;;;;;;0.10;0.10;;;;;;;21.92;44.32;101697.66;4952817;28;20127;-73
2023/06/09 01:33:25;;;;;;;0.10;0.10;;;;;;;21.97;43.70;101686.72;4965878;28;20067;-74
2023/06/09 01:35:53;;;;;;;0.10;0.10;;;;;;;21.68;44.65;101693.88;4965433;28;20109;-72
2023/06/09 01:38:20;;;;;;;0.10;0.10;;;;;;;22.02;43.92;101685.84;4964362;28;20038;-74
2023/06/09 01:40:46;;;;;;;0.10;0.10;;;;;;;21.78;44.40;101681.00;4968274;28;20780;-73
2023/06/09 01:43:12;;;;;;;0.10;0.10;;;;;;;21.91;44.19;101684.25;4971723;28;20038;-73
2023/06/09 01:45:37;;;;;;;0.10;0.10;;;;;;;22.41;42.92;101679.34;4994310;28;20030;-74
2023/06/09 01:48:41;;;;;;;0.10;0.10;;;;;;;22.17;43.06;101688.53;4972655;28;20094;-74
2023/06/09 01:51:08;;;;;;;0.10;0.10;;;;;;;22.26;43.22;101678.63;5053753;28;20052;-73
2023/06/09 01:53:41;;;;;;;0.00;0.00;;;;;;;21.78;44.24;101678.25;5054500;28;20041;-73
2023/06/09 01:56:22;;;;;;;0.10;0.10;;;;;;;22.33;43.13;101670.91;5061226;28;20032;-73
2023/06/09 01:58:53;;;;;;;0.10;0.10;;;;;;;22.53;42.65;101677.09;5060643;28;20037;-72
2023/06/09 02:01:22;;;;;;;0.08;0.08;;;;;;;22.58;42.77;101679.00;5062029;28;20043;-73
2023/06/09 02:03:51;;;;;;;0.10;0.10;;;;;;;21.91;43.98;101678.78;5064352;28;20041;-73
2023/06/09 02:06:19;;;;;;;0.10;0.10;;;;;;;22.00;43.81;101677.09;5053606;28;20029;-72
2023/06/09 02:08:44;;;;;;;0.10;0.10;;;;;;;21.29;45.72;101676.47;5076121;28;20029;-74
2023/06/09 02:11:10;;;;;;;0.00;0.00;;;;;;;22.26;43.69;101679.44;5053428;28;20029;-74
2023/06/09 02:13:36;;;;;;;0.10;0.10;;;;;;;22.52;43.10;101680.13;5063729;28;20748;-73
2023/06/09 02:16:02;;;;;;;0.10;0.10;;;;;;;22.13;43.82;101681.97;5052777;28;20017;-73
2023/06/09 02:18:27;;;;;;;0.10;0.10;;;;;;;22.16;43.80;101681.41;5063207;28;20493;-73
2023/06/09 02:20:53;;;;;;;0.15;0.15;;;;;;;22.50;42.84;101682.31;5059615;28;20036;-73
2023/06/09 02:23:19;;;;;;;0.20;0.20;;;;;;;22.55;42.96;101685.00;5056300;28;20033;-73
2023/06/09 02:25:45;;;;;;;0.10;0.10;;;;;;;22.31;43.86;101689.56;5066520;28;20028;-72
2023/06/09 02:28:10;;;;;;;0.10;0.10;;;;;;;22.31;43.33;101693.09;5066086;28;20036;-74
2023/06/09 02:30:36;;;;;;;0.10;0.10;;;;;;;22.43;42.81;101684.53;5051551;28;20072;-73
2023/06/09 02:33:02;;;;;;;0.10;0.10;;;;;;;22.18;43.55;101688.25;5060638;28;20040;-73
2023/06/09 02:35:28;;;;;;;0.10;0.10;;;;;;;21.35;46.30;101675.34;5054616;28;20428;-71
2023/06/09 02:37:54;;;;;;;0.08;0.08;;;;;;;21.67;45.60;101676.66;5063467;28;20339;-73
2023/06/09 02:40:20;;;;;;;0.10;0.10;;;;;;;22.03;44.53;101676.56;5055215;28;20031;-73
2023/06/09 02:42:46;;;;;;;0.10;0.10;;;;;;;22.36;43.45;101673.91;5074938;28;20024;-72
2023/06/09 02:45:12;;;;;;;0.10;0.10;;;;;;;21.63;45.59;101672.84;5051453;28;20037;-73
2023/06/09 02:47:38;;;;;;;0.10;0.10;;;;;;;21.69;45.63;101676.38;5062781;28;20041;-73
2023/06/09 02:50:03;;;;;;;0.10;0.10;;;;;;;21.96;44.69;101665.91;5052121;28;20036;-73
2023/06/09 02:52:29;;;;;;;0.10;0.10;;;;;;;22.00;44.84;101668.88;5061968;28;20028;-72
2023/06/09 02:54:55;;;;;;;0.10;0.10;;;;;;;21.92;44.74;101673.03;5055918;28;20017;-74
2023/06/09 02:57:20;;;;;;;0.10;0.10;;;;;;;21.80;45.19;101667.88;5065446;28;20048;-71
2023/06/09 02:59:46;;;;;;;0.10;0.10;;;;;;;21.77;45.14;101665.69;5067618;28;20091;-72
2023/06/09 03:02:11;;;;;;;0.10;0.10;;;;;;;21.60;46.31;101667.13;5052991;28;20029;-72
2023/06/09 03:04:37;;;;;;;0.10;0.10;;;;;;;21.91;45.28;101665.09;5060191;28;20468;-73
2023/06/09 03:07:04;;;;;;;0.00;0.00;;;;;;;21.51;46.35;101655.09;5067912;28;20465;-72
2023/06/09 03:09:30;;;;;;;0.10;0.10;;;;;;;21.62;45.81;101659.44;5060746;28;20175;-73
2023/06/09 03:11:55;;;;;;;0.00;0.00;;;;;;;21.62;46.09;101654.78;5051267;28;20124;-74
2023/06/09 03:14:21;;;;;;;0.10;0.10;;;;;;;21.67;45.95;101662.97;5062650;28;20040;-73
2023/06/09 03:16:46;;;;;;;0.10;0.10;;;;;;;21.31;47.53;101672.34;5057451;28;20025;-73
2023/06/09 03:19:12;;;;;;;0.10;0.10;;;;;;;20.42;50.26;101674.75;5056365;28;20060;-73
2023/06/09 03:21:37;;;;;;;0.10;0.10;;;;;;;21.18;48.20;101681.13;5062317;28;20040;-73
2023/06/09 03:24:04;;;;;;;0.10;0.10;;;;;;;21.51;47.48;101685.19;5051539;28;20124;-73
2023/06/09 03:26:30;;;;;;;0.10;0.10;;;;;;;21.25;48.05;101678.94;5070520;28;20065;-72
2023/06/09 03:28:55;;;;;;;0.10;0.10;;;;;;;20.64;49.75;101678.09;5057953;28;20072;-72
2023/06/09 03:31:21;;;;;;;0.10;0.10;;;;;;;21.29;48.60;101684.66;5051061;28;20516;-72
2023/06/09 03:33:46;;;;;;;0.10;0.10;;;;;;;21.44;47.98;101690.13;5062326;28;20033;-72
2023/06/09 03:36:11;;;;;;;0.10;0.10;;;;;;;20.97;49.32;101685.75;5052449;28;20032;-71
2023/06/09 03:38:37;;;;;;;0.10;0.10;;;;;;;21.03;49.90;101683.88;5060393;28;20044;-72
2023/06/09 03:41:03;;;;;;;0.10;0.10;;;;;;;21.18;49.19;101675.66;5059450;28;20044;-72
2023/06/09 03:43:29;;;;;;;0.10;0.10;;;;;;;21.41;48.40;101669.63;5053081;28;20099;-72
2023/06/09 03:45:55;;;;;;;0.10;0.10;;;;;;;21.14;49.97;101673.75;5062209;28;20040;-72
2023/06/09 03:48:21;;;;;;;0.10;0.10;;;;;;;21.40;48.65;101678.94;5053706;28;20040;-71
2023/06/09 03:50:46;;;;;;;0.10;0.10;;;;;;;21.51;48.77;101685.19;5058776;28;20060;-72
2023/06/09 03:53:12;;;;;;;0.10;0.10;;;;;;;21.09;49.34;101676.50;5060441;28;20037;-72
2023/06/09 03:55:38;;;;;;;0.10;0.10;;;;;;;21.17;49.96;101678.69;5051272;28;20033;-72
2023/06/09 03:58:04;;;;;;;0.10;0.10;;;;;;;21.21;50.05;101679.78;5043153;28;20381;-71
2023/06/09 04:00:29;;;;;;;0.05;0.05;;;;;;;21.46;49.09;101679.72;5060746;28;20052;-73
2023/06/09 04:02:55;;;;;;;0.10;0.10;;;;;;;20.84;51.52;101666.34;5048403;28;20041;-72
2023/06/09 04:05:21;;;;;;;0.10;0.10;;;;;;;20.41;52.70;101675.03;5051851;28;20040;-71
2023/06/09 04:07:47;;;;;;;0.10;0.10;;;;;;;20.18;53.73;101668.16;5049636;28;20493;-71
2023/06/09 04:10:12;;;;;;;0.10;0.10;;;;;;;20.94;51.28;101666.34;5044628;28;20025;-71
2023/06/09 04:12:41;;;;;;;0.10;0.10;;;;;;;20.99;51.38;101674.56;5052742;28;20048;-72
2023/06/09 04:15:07;;;;;;;0.10;0.10;;;;;;;21.03;51.64;101678.41;5047010;28;20033;-71
2023/06/09 04:17:34;;;;;;;0.10;0.10;;;;;;;20.47;52.85;101673.97;5057579;28;20068;-72
2023/06/09 04:19:59;;;;;;;0.10;0.10;;;;;;;20.70;52.91;101679.72;5061548;28;20029;-72
2023/06/09 04:22:24;;;;;;;0.10;0.10;;;;;;;20.76;53.10;101683.28;5053572;28;20450;-70
2023/06/09 04:24:50;;;;;;;0.10;0.10;;;;;;;20.49;53.83;101680.81;5058289;28;20381;-72
2023/06/09 04:27:19;;;;;;;0.10;0.10;;;;;;;20.78;53.09;101687.41;5049772;28;20048;-72
2023/06/09 04:29:45;;;;;;;0.10;0.10;;;;;;;21.42;51.37;101686.84;5049763;28;20063;-73
2023/06/09 04:32:11;;;;;;;0.10;0.10;;;;;;;21.14;51.65;101684.69;5031260;28;20033;-73
2023/06/09 04:34:38;;;;;;;0.10;0.10;;;;;;;21.51;50.44;101694.22;5050117;28;20055;-72
2023/06/09 04:37:04;;;;;;;0.10;0.10;;;;;;;21.43;51.11;101683.84;5059101;28;20021;-73
2023/06/09 04:39:30;;;;;;;0.10;0.10;;;;;;;20.89;52.77;101691.75;5052162;28;20037;-72
2023/06/09 04:41:55;;;;;;;0.20;0.20;;;;;;;20.90;53.16;101690.69;5061472;28;20029;-72
2023/06/09 04:44:21;;;;;;;0.10;0.10;;;;;;;20.59;54.15;101683.56;5052750;28;20032;-74
2023/06/09 04:46:49;;;;;;;0.10;0.10;;;;;;;20.79;53.48;101688.22;5058183;28;20040;-72
2023/06/09 04:49:15;;;;;;;0.20;0.20;;;;;;;21.03;52.54;101681.13;5060465;28;20048;-71
2023/06/09 04:51:49;;;;;;;0.10;0.10;;;;;;;21.21;53.07;101687.97;5050116;28;20519;-73
2023/06/09 04:54:16;;;;;;;0.10;0.10;;;;;;;21.18;52.74;101686.59;5045855;28;20481;-71
2023/06/09 04:56:43;;;;;;;0.10;0.10;;;;;;;21.40;51.88;101681.66;5040883;28;20492;-72
2023/06/09 04:59:10;;;;;;;0.00;0.00;;;;;;;21.35;52.03;101680.81;5044627;28;20385;-72
2023/06/09 05:01:37;;;;;;;0.15;0.15;;;;;;;21.23;52.67;101672.91;5040308;28;20041;-72
2023/06/09 05:04:02;;;;;;;0.10;0.10;;;;;;;21.47;52.23;101679.44;5045258;28;20017;-72
2023/06/09 05:06:27;;;;;;;0.10;0.10;;;;;;;20.68;54.52;101686.56;5046504;28;20090;-73
2023/06/09 05:08:55;;;;;;;0.10;0.10;;;;;;;21.72;51.33;101682.09;5044030;28;20041;-72
2023/06/09 05:11:20;;;;;;;0.10;0.10;;;;;;;21.23;53.37;101686.59;5047947;28;20424;-73
2023/06/09 05:13:46;;;;;;;0.20;0.20;;;;;;;21.16;53.17;101682.50;5028073;28;20033;-72
2023/06/09 05:16:12;;;;;;;0.10;0.10;;;;;;;20.98;53.66;101681.94;5048052;28;20442;-71
2023/06/09 05:18:37;;;;;;;0.10;0.10;;;;;;;21.70;52.08;101684.28;5030810;28;20045;-72
2023/06/09 05:21:03;;;;;;;0.10;0.10;;;;;;;22.21;50.25;101684.13;5032947;28;20060;-72
2023/06/09 05:23:28;;;;;;;0.13;0.13;;;;;;;21.25;53.05;101686.31;5047548;28;20061;-71
2023/06/09 05:25:54;;;;;;;0.10;0.10;;;;;;;21.16;54.36;101687.97;5047604;28;20148;-72
2023/06/09 05:28:19;;;;;;;0.10;0.10;;;;;;;21.68;52.83;101694.69;5038232;28;20044;-72
2023/06/09 05:30:45;;;;;;;0.10;0.10;;;;;;;21.61;52.95;101693.34;5059435;28;20051;-71
2023/06/09 05:33:11;;;;;;;0.10;0.10;;;;;;;22.23;51.08;101688.22;5047699;28;20068;-73
2023/06/09 05:35:36;;;;;;;0.10;0.10;;;;;;;22.53;49.97;101688.03;5047793;28;20029;-74
2023/06/09 05:38:02;;;;;;;0.10;0.10;;;;;;;22.58;49.58;101679.00;5047886;28;20092;-73
2023/06/09 05:40:27;;;;;;;0.10;0.10;;;;;;;22.74;49.66;101680.53;5044854;28;20043;-72
2023/06/09 05:42:53;;;;;;;0.20;0.20;;;;;;;22.95;49.54;101683.94;5051440;28;20130;-72
2023/06/09 05:45:18;;;;;;;0.10;0.10;;;;;;;22.94;49.46;101685.03;5047915;28;20570;-73
2023/06/09 05:47:43;;;;;;;0.10;0.10;;;;;;;22.89;49.37;101682.31;5055510;28;20052;-73
2023/06/09 05:50:09;;;;;;;0.10;0.10;;;;;;;22.79;49.64;101682.41;5047405;28;20037;-72
2023/06/09 05:52:35;;;;;;;0.10;0.10;;;;;;;22.78;49.54;101684.31;5052229;28;20509;-73
2023/06/09 05:55:01;;;;;;;0.10;0.10;;;;;;;22.69;50.55;101689.63;5052212;28;20017;-70
2023/06/09 05:57:29;;;;;;;0.10;0.10;;;;;;;22.87;49.70;101690.84;5052273;28;20035;-71
2023/06/09 05:59:56;;;;;;;0.10;0.10;;;;;;;22.67;50.22;101697.28;5051782;28;20041;-73
2023/06/09 06:02:22;;;;;;;0.17;0.17;;;;;;;22.31;51.43;101700.50;5047312;28;20401;-72
2023/06/09 06:04:47;;;;;;;0.10;0.10;;;;;;;22.76;50.38;101692.00;5052392;28;20032;-73
2023/06/09 06:07:15;;;;;;;0.08;0.08;;;;;;;22.88;50.35;101691.66;5052624;28;20392;-72
2023/06/09 06:09:40;;;;;;;0.10;0.10;;;;;;;23.23;48.94;101696.84;5052180;28;20033;-72
2023/06/09 06:12:06;;;;;;;0.00;0.00;;;;;;;22.59;50.66;101694.31;5052025;28;20354;-71
2023/06/09 06:14:32;;;;;;;0.10;0.10;;;;;;;22.83;50.62;101692.53;5052302;28;20041;-71
2023/06/09 06:16:57;;;;;;;0.20;0.20;;;;;;;23.15;49.59;101692.81;5051546;28;20036;-71
2023/06/09 06:19:22;;;;;;;0.10;0.10;;;;;;;23.35;49.23;101695.38;5052513;28;20401;-72
2023/06/09 06:21:48;;;;;;;0.10;0.10;;;;;;;23.40;49.14;101694.50;5035361;28;20144;-74
2023/06/09 06:24:14;;;;;;;0.10;0.10;;;;;;;23.50;49.22;101695.22;5046830;28;20037;-71
2023/06/09 06:26:39;;;;;;;0.10;0.10;;;;;;;23.73;48.67;101692.78;5046687;28;20060;-73
2023/06/09 06:29:05;;;;;;;0.10;0.10;;;;;;;23.24;49.89;101696.56;5046612;28;20397;-72
2023/06/09 06:31:30;;;;;;;0.10;0.10;;;;;;;23.52;48.86;101687.53;5050594;28;20080;-70
2023/06/09 06:33:57;;;;;;;0.00;0.00;;;;;;;23.53;49.38;101696.56;5052100;28;20036;-73
2023/06/09 06:36:23;;;;;;;0.10;0.10;;;;;;;23.58;49.76;101691.03;5066079;28;20039;-71
2023/06/09 06:38:49;;;;;;;0.10;0.10;;;;;;;23.99;48.50;101683.94;5054273;28;20036;-70
2023/06/09 06:41:14;;;;;;;0.10;0.10;;;;;;;24.44;47.78;101690.78;5049512;28;20053;-70
2023/06/09 06:43:43;;;;;;;0.05;0.05;;;;;;;24.08;47.97;101684.94;5030647;28;20030;-71
2023/06/09 06:46:11;;;;;;;0.17;0.17;;;;;;;23.95;48.38;101677.41;5031439;28;20021;-69
2023/06/09 06:48:38;;;;;;;0.05;0.05;;;;;;;24.49;47.21;101681.66;5049078;28;20098;-71
2023/06/09 06:51:05;;;;;;;0.08;0.08;;;;;;;24.45;47.41;101686.09;5050913;28;20038;-70
2023/06/09 06:53:30;;;;;;;0.10;0.10;;;;;;;24.83;46.52;101683.06;5050544;28;20040;-70
2023/06/09 06:55:56;;;;;;;0.10;0.10;;;;;;;24.96;46.03;101681.47;5050870;28;20519;-72
2023/06/09 06:58:21;;;;;;;0.00;0.00;;;;;;;25.11;46.14;101683.97;5051726;28;20040;-74
2023/06/09 07:00:47;;;;;;;0.00;0.00;;;;;;;24.99;46.05;101687.19;5051277;28;20029;-71
2023/06/09 07:03:12;;;;;;;0.10;0.10;;;;;;;25.16;45.80;101692.13;5050838;28;20029;-72
2023/06/09 07:05:38;;;;;;;0.00;0.00;;;;;;;24.62;47.05;101689.13;5050827;28;20083;-71
2023/06/09 07:08:04;;;;;;;0.00;0.00;;;;;;;24.74;47.15;101687.63;5051037;28;20033;-71
2023/06/09 07:10:31;;;;;;;0.05;0.05;;;;;;;25.28;46.22;101678.69;5050981;28;20036;-70
2023/06/09 07:12:56;;;;;;;0.10;0.10;;;;;;;25.33;46.05;101688.81;5051167;28;20086;-72
2023/06/09 07:15:21;;;;;;;0.00;0.00;;;;;;;25.49;45.43;101691.03;5050783;28;20033;-72
2023/06/09 07:17:47;;;;;;;0.00;0.00;;;;;;;25.23;46.08;101696.13;5050544;28;20025;-72
2023/06/09 07:20:12;;;;;;;0.00;0.00;;;;;;;25.70;45.34;101695.00;5050878;28;20033;-71
2023/06/09 07:22:41;;;;;;;0.00;0.00;;;;;;;25.77;45.61;101694.56;5050774;28;20516;-70
2023/06/09 07:25:08;;;;;;;0.00;0.00;;;;;;;25.75;45.03;101696.84;5051270;28;20025;-72
2023/06/09 07:27:33;;;;;;;0.03;0.03;;;;;;;26.00;44.67;101694.38;5050277;28;20048;-73
2023/06/09 07:29:59;;;;;;;0.00;0.00;;;;;;;26.32;43.84;101681.63;5050673;28;20028;-72
2023/06/09 07:32:24;;;;;;;0.00;0.00;;;;;;;26.53;43.19;101685.53;5050184;28;20040;-72
2023/06/09 07:34:50;;;;;;;0.00;0.00;;;;;;;26.64;43.12;101689.66;5045402;28;20580;-73
2023/06/09 07:37:15;;;;;;;0.00;0.00;;;;;;;26.41;43.51;101685.25;5046016;28;20032;-72
2023/06/09 07:39:41;;;;;;;0.00;0.00;;;;;;;26.92;42.50;101686.53;5042651;28;20420;-72
2023/06/09 07:42:07;;;;;;;0.00;0.00;;;;;;;27.01;42.80;101689.31;5034580;28;20180;-72
2023/06/09 07:44:32;;;;;;;0.00;0.00;;;;;;;26.79;43.40;101681.06;5049582;28;20444;-73
2023/06/09 07:46:59;;;;;;;0.00;0.00;;;;;;;26.60;44.09;101685.91;5044994;28;20037;-72
2023/06/09 07:49:24;;;;;;;0.00;0.00;;;;;;;26.83;43.19;101680.13;5050756;28;20078;-68
2023/06/09 07:51:50;;;;;;;0.00;0.00;;;;;;;27.06;43.91;101682.88;5046052;28;20025;-72
2023/06/09 07:54:16;;;;;;;0.00;0.00;;;;;;;26.93;43.53;101681.81;5044797;28;20083;-71
2023/06/09 07:56:42;;;;;;;0.00;0.00;;;;;;;27.19;43.65;101677.28;5045683;28;20048;-71
2023/06/09 07:59:07;;;;;;;0.00;0.00;;;;;;;27.35;43.18;101677.72;5037667;28;20045;-71
2023/06/09 08:01:32;;;;;;;0.00;0.00;;;;;;;27.59;42.27;101680.91;5042548;28;20067;-72
2023/06/09 08:04:01;;;;;;;0.32;0.00;;;;;;;27.71;42.29;101687.44;5058479;28;20020;-70
2023/06/09 08:06:28;;;;;;;0.00;0.00;;;;;;;27.75;42.23;101676.59;5037720;28;20484;-72
2023/06/09 08:08:53;;;;;;;0.00;0.00;;;;;;;28.17;40.82;101678.69;5050461;28;20037;-71
2023/06/09 08:11:19;;;;;;;0.00;0.00;;;;;;;28.20;41.05;101680.00;5049967;28;20091;-72
2023/06/09 08:13:44;;;;;;;0.00;0.00;;;;;;;28.48;40.37;101676.59;5054530;28;20040;-72
2023/06/09 08:16:10;;;;;;;0.00;0.00;;;;;;;28.06;40.58;101680.13;5043723;28;20033;-72
2023/06/09 08:18:35;;;;;;;0.00;0.00;;;;;;;28.31;40.14;101673.00;5051653;28;20036;-72
2023/06/09 08:21:01;;;;;;;0.00;0.00;;;;;;;28.48;40.74;101670.25;5058374;28;20315;-72
2023/06/09 08:23:26;;;;;;;0.00;0.00;;;;;;;28.83;39.86;101665.53;5060378;28;20044;-73
2023/06/09 08:25:51;;;;;;;0.00;0.00;;;;;;;28.65;40.52;101670.28;5067508;28;20380;-73
2023/06/09 08:28:17;;;;;;;0.00;0.00;;;;;;;27.99;41.96;101662.41;5046970;28;20041;-72
2023/06/09 08:30:42;;;;;;;0.00;0.00;;;;;;;28.46;40.37;101667.81;5048519;28;20028;-71
2023/06/09 08:33:08;;;;;;;0.00;0.00;;;;;;;28.81;40.21;101657.59;5056184;28;20405;-73
2023/06/09 08:35:33;;;;;;;0.00;0.00;;;;;;;29.52;38.35;101655.13;5028425;28;20377;-73
2023/06/09 08:38:00;;;;;;;0.00;0.00;;;;;;;29.77;37.55;101657.81;5056634;28;20029;-72
2023/06/09 08:40:25;;;;;;;0.00;0.00;;;;;;;29.99;37.74;101651.16;5026172;28;20040;-75
2023/06/09 08:42:55;;;;;;;0.00;0.00;;;;;;;29.84;37.75;101658.06;5027561;28;20037;-73
2023/06/09 08:45:22;;;;;;;0.98;0.00;;;;;;;29.92;37.44;101659.16;5064938;28;20051;-75
2023/06/09 08:47:49;;;;;;;0.00;0.00;;;;;;;30.14;37.05;101648.59;5022338;28;20046;-76
2023/06/09 08:50:18;;;;;;;0.00;0.00;;;;;;;30.32;36.75;101652.09;5014873;28;20036;-75
2023/06/09 08:52:44;;;;;;;0.00;0.00;;;;;;;29.82;37.78;101660.38;5030620;28;20033;-76
2023/06/09 08:55:13;;;;;;;0.00;0.00;;;;;;;30.66;36.04;101650.97;5011845;28;20034;-74
2023/06/09 08:57:39;;;;;;;0.00;0.00;;;;;;;31.14;34.89;101653.94;5064955;28;20033;-73
2023/06/09 09:00:08;;;;;;;0.00;0.00;;;;;;;31.18;35.39;101652.09;5049956;28;20037;-73
2023/06/09 09:02:34;;;;;;;0.00;0.00;;;;;;;30.91;34.12;101649.94;5055562;28;20075;-76
2023/06/09 09:05:00;;;;;;;0.00;0.00;;;;;;;30.81;35.23;101642.00;5027903;28;20049;-73
2023/06/09 09:07:26;;;;;;;0.00;0.00;;;;;;;30.71;34.59;101651.56;5029715;28;20386;-74
2023/06/09 09:09:51;;;;;;;0.00;0.00;;;;;;;31.47;33.78;101648.38;5028891;28;20025;-73
2023/06/09 09:12:16;;;;;;;0.00;0.00;;;;;;;30.84;35.10;101658.03;5047106;28;20037;-74
2023/06/09 09:14:43;;;;;;;0.00;0.00;;;;;;;31.47;34.32;101660.25;5065228;28;20036;-74
2023/06/09 09:17:13;;;;;;;0.00;0.00;;;;;;;31.23;33.81;101651.06;5042402;28;20053;-73
2023/06/09 09:19:48;;;;;;;0.00;0.00;;;;;;;31.73;33.83;101657.16;5028289;28;20398;-72
2023/06/09 09:22:14;;;;;;;0.00;0.00;;;;;;;31.99;33.08;101652.06;5028904;28;20548;-73
2023/06/09 09:24:44;;;;;;;0.00;0.00;;;;;;;31.95;33.35;101640.84;5063183;28;20036;-74
2023/06/09 09:27:22;;;;;;;0.00;0.00;;;;;;;31.97;32.81;101654.38;5048475;28;20068;-73
2023/06/09 09:29:48;;;;;;;0.00;0.00;;;;;;;32.41;32.05;101653.34;5054834;28;20136;-74
2023/06/09 09:32:15;;;;;;;0.00;0.00;;;;;;;31.45;33.44;101654.25;5055453;28;20568;-75
2023/06/09 09:34:42;;;;;;;0.00;0.00;;;;;;;31.65;32.97;101647.78;5064565;28;20046;-74
2023/06/09 09:37:15;;;;;;;0.00;0.00;;;;;;;31.85;33.27;101660.75;5052362;28;20016;-75
2023/06/09 09:39:48;;;;;;;0.00;0.00;;;;;;;32.79;31.87;101647.31;5059874;28;20037;-74
2023/06/09 09:42:14;;;;;;;0.00;0.00;;;;;;;33.31;30.20;101652.72;5048541;28;20116;-75
2023/06/09 09:44:41;;;;;;;0.00;0.00;;;;;;;32.61;31.25;101649.59;5064003;28;20041;-73
2023/06/09 09:47:09;;;;;;;0.00;0.00;;;;;;;31.77;33.20;101652.50;5051346;28;20090;-72
2023/06/09 09:49:35;;;;;;;0.00;0.00;;;;;;;32.80;31.23;101646.16;5061268;28;20743;-74
2023/06/09 09:52:01;;;;;;;0.00;0.00;;;;;;;33.43;30.37;101647.06;5059857;28;20024;-74
2023/06/09 09:54:27;;;;;;;0.00;0.00;;;;;;;32.87;31.33;101643.56;5055257;28;20036;-74
2023/06/09 09:56:58;;;;;;;0.00;0.00;;;;;;;33.16;30.39;101643.19;5064773;28;20033;-74
2023/06/09 09:59:25;;;;;;;0.00;0.00;;;;;;;33.71;29.68;101649.78;5051788;28;20654;-75
2023/06/09 10:01:54;;;;;;;0.00;0.00;;;;;;;33.77;30.36;101637.97;5059996;28;20632;-75
2023/06/09 10:04:23;;;;;;;0.00;0.00;;;;;;;34.10;29.57;101637.56;5062272;28;20450;-76
2023/06/09 10:06:53;;;;;;;0.00;0.00;;;;;;;34.13;29.53;101636.84;5048975;28;20041;-74
2023/06/09 10:09:24;;;;;;;0.00;0.00;;;;;;;33.80;30.11;101634.47;5030661;28;20048;-74
2023/06/09 10:11:51;;;;;;;0.00;0.00;;;;;;;34.29;28.76;101638.41;5038386;28;20033;-74
2023/06/09 10:14:18;;;;;;;0.00;0.00;;;;;;;33.30;28.81;101628.81;5047534;28;20044;-75
2023/06/09 10:16:44;;;;;;;0.00;0.00;;;;;;;33.46;29.93;101635.19;5046108;28;20017;-76
2023/06/09 10:19:10;;;;;;;0.00;0.00;;;;;;;33.78;29.10;101628.44;5047763;28;20029;-72
2023/06/09 10:21:36;;;;;;;0.00;0.00;;;;;;;34.44;28.61;101626.34;5022572;28;20056;-75
2023/06/09 10:24:04;;;;;;;0.00;0.00;;;;;;;33.91;28.81;101626.31;5027762;28;20037;-75
2023/06/09 10:26:29;;;;;;;0.00;0.00;;;;;;;35.05;28.02;101623.59;5036012;28;20033;-75
2023/06/09 10:28:55;;;;;;;0.00;0.00;;;;;;;34.59;28.12;101615.50;5049064;28;20528;-75
2023/06/09 10:31:23;;;;;;;0.00;0.00;;;;;;;35.44;27.23;101620.69;5051290;28;20044;-75
2023/06/09 10:33:51;;;;;;;0.00;0.00;;;;;;;34.99;26.93;101615.88;5039496;28;20077;-75
2023/06/09 10:36:16;;;;;;;0.00;0.00;;;;;;;35.87;26.03;101620.19;5039316;28;20693;-75
2023/06/09 10:38:53;;;;;;;0.00;0.00;;;;;;;35.56;26.36;101617.72;5039499;28;20091;-77
2023/06/09 10:41:30;;;;;;;0.00;0.00;;;;;;;36.03;25.76;101627.25;5043924;28;20040;-75
2023/06/09 10:44:17;;;;;;;0.00;0.00;;;;;;;36.32;25.59;101616.44;5034565;28;20087;-75
2023/06/09 10:46:45;;;;;;;0.00;0.00;;;;;;;36.50;25.18;101620.28;5041494;28;20670;-75
2023/06/09 10:49:29;;;;;;;0.00;0.00;;;;;;;36.78;24.85;101615.78;5031695;28;20024;-78
2023/06/09 10:51:55;;;;;;;0.00;0.00;;;;;;;35.85;25.72;101619.75;5038343;28;20421;-74
2023/06/09 10:54:25;;;;;;;0.00;0.00;;;;;;;36.14;24.41;101617.00;5041201;28;20128;-74
2023/06/09 10:57:00;;;;;;;0.00;0.00;;;;;;;35.14;26.08;101606.59;5047191;28;20029;-77
2023/06/09 10:59:26;;;;;;;0.00;0.00;;;;;;;36.14;25.77;101608.59;5038054;28;20088;-73
2023/06/09 11:02:03;;;;;;;0.00;0.00;;;;;;;36.04;25.63;101602.88;5045271;28;20128;-76
2023/06/09 11:04:38;;;;;;;0.10;0.00;;;;;;;36.46;24.79;101603.44;5033423;28;20017;-74
2023/06/09 11:07:13;;;;;;;0.00;0.00;;;;;;;36.49;24.57;101596.25;5044435;28;20048;-74
2023/06/09 11:09:40;;;;;;;0.00;0.00;;;;;;;35.76;25.47;101594.84;5034980;28;20029;-75
2023/06/09 11:12:08;;;;;;;0.00;0.00;;;;;;;34.96;27.44;101594.25;5036179;28;20456;-72
2023/06/09 11:14:51;;;;;;;0.00;0.00;;;;;;;36.21;26.01;101595.91;5030880;28;20099;-75
2023/06/09 11:17:30;;;;;;;0.00;0.00;;;;;;;35.72;25.73;101590.38;5034282;28;20047;-76
2023/06/09 11:20:08;;;;;;;0.00;0.00;;;;;;;36.74;24.71;101586.94;5044864;28;20056;-77
2023/06/09 11:22:47;;;;;;;0.00;0.00;;;;;;;36.42;25.12;101569.00;5048666;28;20538;-74
2023/06/09 11:25:18;;;;;;;0.00;0.00;;;;;;;37.02;23.94;101564.00;5033541;28;20075;-75